Time;durP1;ratioP1;P1;durP2;ratioP2;P2;SDS_P1;SDS_P2;PMS_P1;PMS_P2;Temp;Humidity;BMP_temperature;BMP_pressure;BME280_temperature;BME280_humidity;BME280_pressure;Samples;Min_cycle;Max_cycle;Signal;HPM_P1;HPM_P2
2022/02/02 00:01:50;;;;;;;4.03;3.72;;;6.00;99.90;;;;;;5037298;28;20253;-83
2022/02/02 00:04:21;;;;;;;3.55;3.17;;;6.10;99.90;;;;;;5037818;28;20269;-84
2022/02/02 00:06:59;;;;;;;6.78;2.92;;;6.10;99.90;;;;;;5037167;28;20205;-84
2022/02/02 00:09:26;;;;;;;4.05;3.20;;;6.10;99.90;;;;;;5036984;28;20356;-83
2022/02/02 00:12:11;;;;;;;3.20;3.00;;;6.10;99.90;;;;;;5036801;28;20230;-83
2022/02/02 00:14:56;;;;;;;3.70;3.28;;;6.00;99.90;;;;;;5037704;28;20284;-84
2022/02/02 00:17:36;;;;;;;4.43;3.33;;;6.00;99.90;;;;;;5037358;28;20316;-84
2022/02/02 00:20:15;;;;;;;3.28;2.92;;;6.00;99.90;;;;;;5038131;28;20288;-84
2022/02/02 00:22:44;;;;;;;3.58;3.30;;;6.00;99.90;;;;;;5037096;28;20228;-83
2022/02/02 00:25:16;;;;;;;3.90;3.40;;;6.00;99.90;;;;;;5037820;28;20230;-83
2022/02/02 00:27:46;;;;;;;4.07;2.85;;;6.00;99.90;;;;;;5037422;28;20198;-84
2022/02/02 00:30:18;;;;;;;3.90;3.35;;;5.90;99.90;;;;;;5036814;28;20261;-84
2022/02/02 00:35:33;;;;;;;3.20;1.95;;;5.90;99.90;;;;;;5036953;28;20710;-84
2022/02/02 00:37:59;;;;;;;1.80;1.65;;;5.90;99.90;;;;;;5037381;28;20578;-84
2022/02/02 00:40:26;;;;;;;1.52;1.42;;;5.90;99.90;;;;;;5036715;28;20229;-82
2022/02/02 00:42:53;;;;;;;1.70;1.60;;;6.00;99.90;;;;;;5036672;28;20209;-81
2022/02/02 00:45:24;;;;;;;2.58;1.17;;;6.00;99.90;;;;;;5037129;28;20230;-82
2022/02/02 00:47:51;;;;;;;1.95;1.85;;;6.00;99.90;;;;;;5037010;28;20419;-82
2022/02/02 00:50:18;;;;;;;2.65;1.65;;;6.10;99.90;;;;;;5036659;28;20276;-82
2022/02/02 00:52:50;;;;;;;1.20;1.10;;;6.00;99.90;;;;;;5038126;28;20202;-82
2022/02/02 00:55:17;;;;;;;3.05;1.40;;;6.00;99.90;;;;;;5037552;28;20292;-82
2022/02/02 00:57:43;;;;;;;1.50;1.40;;;6.10;99.90;;;;;;5036790;28;20278;-82
2022/02/02 01:00:11;;;;;;;1.88;1.73;;;6.00;99.90;;;;;;5037181;28;20226;-84
2022/02/02 01:02:39;;;;;;;4.18;2.05;;;6.00;99.90;;;;;;5036789;28;20210;-82
2022/02/02 01:05:07;;;;;;;2.97;2.78;;;6.10;99.90;;;;;;5036477;28;20245;-82
2022/02/02 01:07:49;;;;;;;3.20;1.55;;;6.00;99.90;;;;;;5037141;28;20203;-82
2022/02/02 01:10:22;;;;;;;3.95;1.90;;;6.00;99.90;;;;;;5036861;28;20272;-81
2022/02/02 01:13:03;;;;;;;3.50;1.80;;;6.10;99.90;;;;;;5037072;28;20194;-82
2022/02/02 01:20:59;;;;;;;5.45;4.85;;;6.30;99.90;;;;;;5036753;28;20254;-82
2022/02/02 01:28:56;;;;;;;3.67;2.72;;;6.40;99.90;;;;;;5036259;28;20254;-82
2022/02/02 01:31:23;;;;;;;1.98;1.80;;;6.40;99.90;;;;;;5036331;28;20751;-83
2022/02/02 01:33:51;;;;;;;5.20;2.05;;;6.40;99.90;;;;;;5036222;28;20206;-82
2022/02/02 01:36:19;;;;;;;4.82;2.33;;;6.40;99.90;;;;;;5036779;28;20229;-82
2022/02/02 01:38:47;;;;;;;1.55;1.40;;;6.40;99.90;;;;;;5036378;28;20289;-82
2022/02/02 01:41:22;;;;;;;3.33;2.53;;;6.40;99.90;;;;;;5036360;28;20222;-82
2022/02/02 01:43:56;;;;;;;2.42;1.80;;;6.40;99.90;;;;;;5036418;28;20194;-82
2022/02/02 01:46:25;;;;;;;2.45;2.25;;;6.40;99.90;;;;;;5037140;28;20201;-82
2022/02/02 01:49:00;;;;;;;4.22;1.55;;;6.50;99.90;;;;;;5036413;28;20218;-81
2022/02/02 01:51:56;;;;;;;1.70;1.60;;;6.50;99.90;;;;;;5035967;28;20232;-80
2022/02/02 01:54:48;;;;;;;2.45;1.30;;;6.40;99.90;;;;;;5036354;28;20237;-81
2022/02/02 01:57:28;;;;;;;2.50;2.30;;;6.40;99.90;;;;;;5036920;28;20218;-82
2022/02/02 01:59:55;;;;;;;4.00;1.30;;;6.40;99.90;;;;;;5036187;28;20229;-82
2022/02/02 02:02:22;;;;;;;2.55;1.95;;;6.40;99.90;;;;;;5039364;28;20573;-82
2022/02/02 02:04:51;;;;;;;4.25;2.10;;;6.40;99.90;;;;;;5039341;28;20230;-82
2022/02/02 02:07:18;;;;;;;1.77;1.58;;;6.40;99.90;;;;;;5039780;28;20194;-81
2022/02/02 02:09:45;;;;;;;2.30;2.00;;;6.40;99.90;;;;;;5040154;28;20227;-81
2022/02/02 02:12:12;;;;;;;2.88;2.13;;;6.40;99.90;;;;;;5039167;28;20931;-81
2022/02/02 02:14:49;;;;;;;3.53;1.70;;;6.40;99.90;;;;;;5039817;28;20210;-82
2022/02/02 02:17:17;;;;;;;1.38;1.27;;;6.40;99.90;;;;;;5039475;28;20222;-82
2022/02/02 02:19:48;;;;;;;2.50;1.98;;;6.40;99.90;;;;;;5039446;28;20223;-84
2022/02/02 02:22:23;;;;;;;2.38;2.17;;;6.50;99.90;;;;;;5039519;28;20591;-83
2022/02/02 02:24:51;;;;;;;1.80;1.70;;;6.40;99.90;;;;;;5040001;28;20217;-84
2022/02/02 02:27:20;;;;;;;3.47;2.75;;;6.50;99.90;;;;;;5040314;28;20202;-84
2022/02/02 02:30:00;;;;;;;5.10;2.40;;;6.50;99.90;;;;;;5039330;28;20222;-84
2022/02/02 02:35:42;;;;;;;3.80;2.67;;;6.60;99.90;;;;;;5021897;28;20603;-84
2022/02/02 02:57:21;;;;;;;5.20;2.72;;;6.90;99.90;;;;;;5039004;28;20233;-84
2022/02/02 03:00:04;;;;;;;4.05;3.55;;;6.80;99.90;;;;;;5039220;28;20230;-83
2022/02/02 03:29:59;;;;;;;5.32;3.00;;;6.80;99.90;;;;;;5038377;28;20241;-84
2022/02/02 03:35:20;;;;;;;7.68;2.65;;;6.70;99.90;;;;;;5039358;28;20194;-84
2022/02/02 03:49:30;;;;;;;1.70;1.33;;;6.70;99.90;;;;;;5015296;28;20694;-83
2022/02/02 03:52:19;;;;;;;10.52;3.58;;;6.70;99.90;;;;;;5039528;28;20210;-82
2022/02/02 03:54:57;;;;;;;7.75;2.55;;;6.60;99.90;;;;;;5040027;28;20213;-83
2022/02/02 03:57:35;;;;;;;3.58;2.63;;;6.70;99.90;;;;;;5040760;28;20229;-83
2022/02/02 04:00:22;;;;;;;4.43;2.58;;;6.60;99.90;;;;;;5040222;28;20289;-83
2022/02/02 04:03:12;;;;;;;2.97;2.10;;;6.60;99.90;;;;;;5040529;28;20212;-82
2022/02/02 04:05:41;;;;;;;2.95;2.75;;;6.60;99.90;;;;;;5040095;28;20202;-83
2022/02/02 04:08:21;;;;;;;2.50;2.30;;;6.60;99.90;;;;;;5040397;28;20629;-83
2022/02/02 04:10:48;;;;;;;1.60;1.30;;;6.60;99.90;;;;;;5039960;28;20256;-83
2022/02/02 04:13:24;;;;;;;1.75;1.65;;;6.60;99.90;;;;;;5040056;28;20206;-82
2022/02/02 04:38:06;;;;;;;5.68;1.88;;;6.90;99.90;;;;;;5038300;28;20232;-83
2022/02/02 04:51:44;;;;;;;3.10;1.98;;;6.60;99.90;;;;;;5038733;28;20228;-83
2022/02/02 04:54:20;;;;;;;4.72;2.25;;;6.60;99.90;;;;;;5039280;28;20582;-83
2022/02/02 04:57:20;;;;;;;4.00;2.40;;;6.60;99.90;;;;;;5039027;28;20229;-83
2022/02/02 04:59:52;;;;;;;8.90;3.33;;;6.60;99.90;;;;;;5038027;28;20739;-83
2022/02/02 05:07:57;;;;;;;5.85;2.15;;;6.60;99.90;;;;;;5038636;28;20201;-83
2022/02/02 05:10:31;;;;;;;5.93;2.80;;;6.60;99.90;;;;;;5039406;28;20262;-84
2022/02/02 05:13:53;;;;;;;5.25;3.38;;;6.50;99.90;;;;;;5038535;28;20277;-85
2022/02/02 05:16:15;;;;;;;6.10;2.08;;;6.50;99.90;;;;;;5038651;28;20277;-83
2022/02/02 05:19:04;;;;;;;10.35;2.78;;;6.40;99.90;;;;;;5038852;28;20231;-83
2022/02/02 05:21:57;;;;;;;6.65;2.90;;;6.30;99.90;;;;;;5038318;28;20237;-83
2022/02/02 05:41:38;;;;;;;4.50;2.42;;;6.30;99.90;;;;;;5042901;28;20229;-83
2022/02/02 05:49:57;;;;;;;2.85;2.60;;;6.30;99.90;;;;;;5001371;28;20219;-83
2022/02/02 05:52:24;;;;;;;5.32;2.83;;;6.30;99.90;;;;;;5042196;28;20214;-83
2022/02/02 05:54:52;;;;;;;4.47;2.22;;;6.30;99.90;;;;;;5044932;28;20203;-86
2022/02/02 05:57:21;;;;;;;4.45;2.10;;;6.30;99.90;;;;;;5044789;28;20218;-83
2022/02/02 05:59:48;;;;;;;7.18;2.40;;;6.50;99.90;;;;;;5041014;28;20230;-80
2022/02/02 06:02:15;;;;;;;4.13;2.50;;;6.50;99.90;;;;;;5038683;28;20199;-81
2022/02/02 06:04:46;;;;;;;1.20;0.88;;;6.50;99.90;;;;;;5032828;28;20206;-81
2022/02/02 06:07:13;;;;;;;5.50;2.33;;;6.50;99.90;;;;;;5038740;28;20272;-81
2022/02/02 06:09:44;;;;;;;4.22;2.85;;;6.50;99.90;;;;;;5037955;28;20626;-81
2022/02/02 06:12:17;;;;;;;3.80;2.92;;;6.50;99.90;;;;;;5038113;28;20682;-82
2022/02/02 06:14:45;;;;;;;3.58;2.55;;;6.50;99.90;;;;;;5040115;28;20256;-82
2022/02/02 06:17:12;;;;;;;5.00;2.90;;;6.50;99.90;;;;;;5039572;28;20230;-80
2022/02/02 06:19:39;;;;;;;7.47;3.53;;;6.60;99.90;;;;;;5038227;28;20206;-80
2022/02/02 06:22:11;;;;;;;2.92;1.85;;;6.50;99.90;;;;;;5037058;28;20285;-81
2022/02/02 06:24:45;;;;;;;1.98;1.45;;;6.60;99.90;;;;;;5038867;28;20631;-82
2022/02/02 06:27:20;;;;;;;1.77;1.52;;;6.60;99.90;;;;;;5037882;28;20205;-81
2022/02/02 06:29:49;;;;;;;5.43;3.42;;;6.60;99.90;;;;;;5037552;28;20241;-81
2022/02/02 06:32:16;;;;;;;1.73;1.70;;;6.60;99.90;;;;;;5036789;28;20278;-81
2022/02/02 06:34:46;;;;;;;6.35;2.38;;;6.50;99.90;;;;;;5037501;28;20218;-82
2022/02/02 06:37:13;;;;;;;6.28;2.40;;;6.60;99.90;;;;;;5037745;28;20230;-80
2022/02/02 06:39:40;;;;;;;4.10;2.65;;;6.60;99.90;;;;;;5037636;28;20206;-80
2022/02/02 06:42:09;;;;;;;8.15;3.45;;;6.60;99.90;;;;;;5037060;28;20212;-81
2022/02/02 06:44:41;;;;;;;3.42;2.75;;;6.60;99.90;;;;;;5037860;28;20582;-81
2022/02/02 06:47:08;;;;;;;4.90;4.50;;;6.60;99.90;;;;;;5018235;28;20198;-80
2022/02/02 06:49:37;;;;;;;6.38;3.05;;;6.60;99.90;;;;;;5018156;28;20246;-85
2022/02/02 06:52:16;;;;;;;1.30;1.30;;;6.60;99.90;;;;;;5018466;28;20238;-82
2022/02/02 06:54:55;;;;;;;7.22;3.47;;;6.60;99.90;;;;;;5018822;28;20211;-83
2022/02/02 06:57:37;;;;;;;5.20;1.88;;;6.60;99.90;;;;;;5038808;28;20218;-82
2022/02/02 07:00:15;;;;;;;10.02;1.80;;;6.60;99.90;;;;;;5038010;28;20222;-82
2022/02/02 07:02:53;;;;;;;2.35;2.25;;;6.60;99.90;;;;;;5038129;28;20289;-82
2022/02/02 07:05:31;;;;;;;5.32;2.05;;;6.60;99.90;;;;;;5038555;28;20270;-82
2022/02/02 07:08:26;;;;;;;2.58;1.80;;;6.60;99.90;;;;;;5037947;28;20209;-82
2022/02/02 07:11:08;;;;;;;2.58;2.03;;;6.70;99.90;;;;;;5037913;28;20230;-81
2022/02/02 07:13:47;;;;;;;5.68;4.68;;;6.70;99.90;;;;;;5038056;28;20191;-82
2022/02/02 07:16:27;;;;;;;6.18;3.53;;;6.70;99.90;;;;;;5037960;28;20190;-82
2022/02/02 07:19:09;;;;;;;6.13;3.13;;;6.70;99.90;;;;;;5037781;28;20637;-82
2022/02/02 07:21:51;;;;;;;3.75;2.40;;;6.70;99.90;;;;;;5037341;28;20222;-82
2022/02/02 07:24:56;;;;;;;3.15;2.85;;;6.70;99.90;;;;;;5037391;28;20233;-81
2022/02/02 07:30:17;;;;;;;4.05;3.13;;;6.70;99.90;;;;;;5037912;28;20333;-82
2022/02/02 07:32:53;;;;;;;3.33;3.03;;;6.60;99.90;;;;;;5036264;28;20199;-81
2022/02/02 07:35:24;;;;;;;2.33;1.65;;;6.60;99.90;;;;;;5034119;28;20190;-81
2022/02/02 07:37:57;;;;;;;6.75;2.17;;;6.70;99.90;;;;;;5036586;28;20305;-82
2022/02/02 07:40:27;;;;;;;5.10;2.88;;;6.60;99.90;;;;;;5035189;28;20603;-82
2022/02/02 07:43:02;;;;;;;4.00;3.70;;;6.50;99.90;;;;;;5036576;28;20584;-80
2022/02/02 07:45:31;;;;;;;2.97;2.67;;;6.50;99.90;;;;;;5035376;28;20189;-79
2022/02/02 07:48:02;;;;;;;6.47;5.85;;;6.50;99.90;;;;;;5030647;28;20213;-79
2022/02/02 07:50:33;;;;;;;3.08;2.30;;;6.50;99.90;;;;;;5034381;28;20222;-82
2022/02/02 07:53:06;;;;;;;4.60;3.17;;;6.50;99.90;;;;;;5035981;28;20240;-81
2022/02/02 07:55:34;;;;;;;7.05;2.78;;;6.60;99.90;;;;;;5038820;28;20213;-84
2022/02/02 07:58:03;;;;;;;13.00;3.15;;;6.60;99.90;;;;;;5041622;28;20241;-81
2022/02/02 08:00:31;;;;;;;5.90;3.13;;;6.60;99.90;;;;;;5037639;28;20226;-79
2022/02/02 08:03:06;;;;;;;10.75;3.63;;;6.60;99.90;;;;;;5038487;28;20202;-80
2022/02/02 08:05:38;;;;;;;2.40;2.22;;;6.60;99.90;;;;;;5044704;28;20225;-81
2022/02/02 08:08:13;;;;;;;10.30;3.63;;;6.60;99.90;;;;;;5045730;28;20795;-81
2022/02/02 08:10:41;;;;;;;7.15;3.22;;;6.60;99.90;;;;;;5043268;28;20249;-80
2022/02/02 08:13:14;;;;;;;5.57;3.05;;;6.60;99.90;;;;;;5046157;28;20217;-81
2022/02/02 08:15:40;;;;;;;7.65;3.22;;;6.60;99.90;;;;;;5046054;28;20233;-80
2022/02/02 08:18:09;;;;;;;8.85;3.03;;;6.70;99.90;;;;;;5045765;28;20222;-81
2022/02/02 08:20:36;;;;;;;7.70;3.03;;;6.80;99.90;;;;;;5044800;28;20234;-81
2022/02/02 08:23:03;;;;;;;4.97;4.57;;;6.70;99.90;;;;;;5045547;28;20206;-80
2022/02/02 08:25:31;;;;;;;6.18;4.53;;;6.80;99.90;;;;;;5045335;28;20210;-81
2022/02/02 08:28:02;;;;;;;6.43;3.40;;;6.80;99.90;;;;;;5045395;28;20202;-81
2022/02/02 08:30:30;;;;;;;4.70;2.70;;;6.70;99.90;;;;;;5044629;28;20268;-81
2022/02/02 08:32:59;;;;;;;4.50;2.95;;;6.70;99.90;;;;;;5045234;28;20680;-80
2022/02/02 08:35:31;;;;;;;3.45;3.13;;;6.60;99.90;;;;;;5045472;28;20232;-81
2022/02/02 08:38:06;;;;;;;6.43;4.15;;;6.70;99.90;;;;;;5044937;28;20252;-80
2022/02/02 08:40:37;;;;;;;3.00;2.30;;;6.60;99.90;;;;;;5045741;28;20209;-80
2022/02/02 08:43:09;;;;;;;4.88;3.10;;;6.40;99.90;;;;;;5044252;28;20214;-80
2022/02/02 08:45:39;;;;;;;5.38;3.58;;;6.30;99.90;;;;;;5043820;28;20217;-80
2022/02/02 08:48:09;;;;;;;10.98;4.00;;;6.10;99.90;;;;;;5043380;28;20252;-80
2022/02/02 08:50:44;;;;;;;3.00;2.80;;;6.10;99.90;;;;;;5041437;28;20284;-80
2022/02/02 08:53:28;;;;;;;8.50;3.78;;;6.10;99.90;;;;;;5041496;28;20242;-79
2022/02/02 08:56:18;;;;;;;6.25;2.83;;;6.10;99.90;;;;;;5041627;28;20206;-80
2022/02/02 08:58:46;;;;;;;6.88;3.13;;;6.20;99.90;;;;;;5039887;28;20233;-79
2022/02/02 09:01:20;;;;;;;3.60;2.53;;;6.20;99.90;;;;;;5040406;28;20226;-80
2022/02/02 09:06:32;;;;;;;6.68;3.53;;;6.40;99.90;;;;;;5040403;28;20225;-80
2022/02/02 09:09:10;;;;;;;6.30;3.20;;;6.40;99.90;;;;;;5040851;28;20568;-80
2022/02/02 09:20:21;;;;;;;10.73;3.60;;;6.80;99.90;;;;;;5000182;28;20241;-80
2022/02/02 09:25:40;;;;;;;7.22;3.22;;;6.90;99.90;;;;;;5025288;28;20229;-80
2022/02/02 09:36:22;;;;;;;8.40;2.85;;;7.10;99.90;;;;;;5041814;28;20210;-80
2022/02/02 09:38:52;;;;;;;8.18;2.92;;;7.10;99.90;;;;;;5042389;28;20233;-81
2022/02/02 09:41:35;;;;;;;9.30;3.30;;;7.10;99.90;;;;;;5040256;28;20233;-80
2022/02/02 09:44:05;;;;;;;8.68;3.35;;;7.10;99.90;;;;;;5042819;28;20683;-80
2022/02/02 09:46:36;;;;;;;14.55;3.95;;;7.10;99.90;;;;;;5040765;28;20297;-80
2022/02/02 09:49:08;;;;;;;9.38;3.40;;;7.10;99.90;;;;;;5041803;28;20202;-80
2022/02/02 09:51:39;;;;;;;6.25;3.67;;;6.90;99.90;;;;;;5041121;28;20325;-80
2022/02/02 09:54:13;;;;;;;4.97;3.45;;;6.80;99.90;;;;;;5041053;28;20210;-80
2022/02/02 09:57:24;;;;;;;6.30;2.88;;;6.90;99.90;;;;;;5040696;28;20202;-80
2022/02/02 10:00:02;;;;;;;9.93;3.60;;;6.90;99.90;;;;;;5040045;28;20222;-80
2022/02/02 10:02:33;;;;;;;13.82;4.30;;;7.00;99.90;;;;;;5042941;28;20280;-80
2022/02/02 10:05:06;;;;;;;2.55;2.35;;;7.00;99.90;;;;;;5042929;28;20714;-80
2022/02/02 10:07:53;;;;;;;8.35;4.13;;;7.10;99.90;;;;;;5041973;28;20202;-80
2022/02/02 10:10:50;;;;;;;9.32;3.65;;;7.20;99.90;;;;;;5042804;28;20253;-80
2022/02/02 10:13:46;;;;;;;7.10;4.00;;;7.20;99.90;;;;;;5044525;28;20214;-80
2022/02/02 10:16:15;;;;;;;8.02;3.92;;;7.30;99.90;;;;;;5043922;28;20210;-80
2022/02/02 10:18:42;;;;;;;12.15;4.38;;;7.30;99.90;;;;;;5044453;28;20230;-81
2022/02/02 10:21:09;;;;;;;3.55;3.25;;;7.30;99.90;;;;;;5044190;28;20230;-80
2022/02/02 10:23:38;;;;;;;4.50;2.70;;;7.00;99.90;;;;;;5046623;28;20221;-79
2022/02/02 10:26:17;;;;;;;5.85;2.88;;;6.50;99.90;;;;;;5045516;28;20206;-81
2022/02/02 10:28:45;;;;;;;3.83;3.25;;;6.20;99.90;;;;;;5047917;28;20202;-80
2022/02/02 10:31:12;;;;;;;3.72;3.17;;;6.00;99.90;;;;;;5044679;28;20237;-81
2022/02/02 10:33:39;;;;;;;4.35;2.67;;;5.90;99.90;;;;;;5041339;28;20214;-81
2022/02/02 10:36:14;;;;;;;3.75;2.45;;;5.90;99.90;;;;;;5041256;28;20919;-81
2022/02/02 10:38:49;;;;;;;7.43;3.55;;;6.00;99.90;;;;;;5040966;28;20233;-81
2022/02/02 10:41:28;;;;;;;6.38;5.22;;;6.00;99.90;;;;;;5040774;28;20235;-82
2022/02/02 10:43:57;;;;;;;6.68;4.32;;;6.10;99.90;;;;;;5039748;28;20662;-81
2022/02/02 10:46:32;;;;;;;4.70;3.92;;;6.20;99.90;;;;;;5039737;28;20210;-82
2022/02/02 10:49:12;;;;;;;9.70;5.07;;;6.30;99.90;;;;;;5039807;28;20228;-81
2022/02/02 10:51:44;;;;;;;5.68;3.63;;;6.50;99.90;;;;;;5039777;28;20604;-80
2022/02/02 10:54:25;;;;;;;7.93;4.28;;;6.70;99.90;;;;;;5040012;28;20275;-82
2022/02/02 10:57:11;;;;;;;4.75;3.47;;;6.80;99.90;;;;;;5039766;28;20571;-82
2022/02/02 11:07:55;;;;;;;12.55;5.03;;;7.20;99.90;;;;;;5045603;28;20259;-82
2022/02/02 11:10:22;;;;;;;7.38;3.03;;;7.20;99.90;;;;;;5046458;28;20236;-81
2022/02/02 11:12:53;;;;;;;8.30;3.53;;;7.20;99.90;;;;;;5041973;28;20246;-83
2022/02/02 11:15:28;;;;;;;12.65;4.00;;;7.20;99.90;;;;;;5040431;28;20209;-81
2022/02/02 11:18:04;;;;;;;8.63;3.33;;;7.30;99.90;;;;;;5039959;28;20237;-83
2022/02/02 11:20:31;;;;;;;3.72;1.90;;;7.30;99.90;;;;;;5039597;28;20225;-82
2022/02/02 11:22:59;;;;;;;3.95;3.47;;;7.20;99.90;;;;;;5040236;28;20208;-80
2022/02/02 11:25:34;;;;;;;5.97;4.22;;;7.30;99.90;;;;;;5039323;28;20206;-80
2022/02/02 11:28:05;;;;;;;9.70;3.80;;;7.40;99.90;;;;;;5039185;28;20202;-82
2022/02/02 11:30:43;;;;;;;7.32;4.45;;;7.50;99.90;;;;;;5039423;28;20264;-81
2022/02/02 11:33:24;;;;;;;5.68;3.22;;;7.50;99.90;;;;;;5039177;28;20666;-82
2022/02/02 11:35:54;;;;;;;3.88;2.33;;;7.50;99.90;;;;;;5039580;28;20539;-81
2022/02/02 11:38:37;;;;;;;7.38;3.22;;;7.50;99.90;;;;;;5038915;28;20230;-82
2022/02/02 11:44:18;;;;;;;8.80;2.40;;;8.50;99.90;;;;;;5036137;28;20205;-82
2022/02/02 11:46:52;;;;;;;10.40;4.45;;;8.30;99.90;;;;;;5038830;28;20202;-81
2022/02/02 11:49:31;;;;;;;2.70;1.85;;;8.20;99.90;;;;;;5038232;28;20607;-82
2022/02/02 11:52:02;;;;;;;7.32;3.08;;;8.20;99.90;;;;;;5037872;28;20210;-82
2022/02/02 11:54:53;;;;;;;10.27;4.80;;;8.50;99.90;;;;;;5038567;28;20245;-83
2022/02/02 11:57:23;;;;;;;8.18;4.55;;;8.60;99.90;;;;;;5023509;28;20206;-82
2022/02/02 12:00:04;;;;;;;7.18;2.35;;;8.50;99.90;;;;;;5037934;28;20234;-82
2022/02/02 12:02:44;;;;;;;5.05;2.95;;;8.40;99.90;;;;;;5038262;28;20214;-82
2022/02/02 12:05:22;;;;;;;6.53;2.08;;;9.30;99.90;;;;;;5044852;28;20208;-82
2022/02/02 12:07:56;;;;;;;5.65;2.17;;;9.60;99.90;;;;;;5039477;28;20207;-83
2022/02/02 12:10:40;;;;;;;4.13;2.00;;;9.00;99.90;;;;;;5039087;28;20320;-82
2022/02/02 12:47:24;;;;;;;8.55;4.35;;;8.30;99.90;;;;;;5035985;28;20255;-83
2022/02/02 12:50:16;;;;;;;4.57;3.25;;;8.30;99.90;;;;;;5037176;28;20273;-81
2022/02/02 12:58:17;;;;;;;5.13;2.72;;;8.30;99.90;;;;;;5037534;28;20253;-82
2022/02/02 13:01:07;;;;;;;3.08;2.45;;;9.10;99.90;;;;;;5037656;28;20253;-82
2022/02/02 13:03:35;;;;;;;5.10;2.90;;;9.80;99.90;;;;;;5038316;28;20215;-81
2022/02/02 13:06:04;;;;;;;3.53;2.00;;;10.30;99.90;;;;;;5038006;28;20212;-83
2022/02/02 13:08:31;;;;;;;9.55;3.33;;;10.40;99.90;;;;;;5037246;28;20499;-81
2022/02/02 13:10:58;;;;;;;5.50;1.58;;;9.50;99.90;;;;;;5036892;28;20224;-83
2022/02/02 13:13:28;;;;;;;3.85;3.47;;;8.60;99.90;;;;;;5036737;28;20217;-82
2022/02/02 13:16:08;;;;;;;6.28;2.95;;;7.80;99.90;;;;;;5037012;28;20722;-81
2022/02/02 13:18:39;;;;;;;2.95;2.22;;;7.70;99.90;;;;;;5036809;28;20237;-83
2022/02/02 13:21:13;;;;;;;3.60;3.00;;;7.50;99.90;;;;;;5036391;28;20280;-81
2022/02/02 13:23:49;;;;;;;6.07;4.25;;;7.20;99.90;;;;;;5037184;28;20206;-82
2022/02/02 13:26:25;;;;;;;5.95;3.30;;;7.00;99.90;;;;;;5045138;28;20260;-81
2022/02/02 13:29:00;;;;;;;7.28;3.53;;;6.90;99.90;;;;;;5045102;28;20718;-81
2022/02/02 13:31:38;;;;;;;6.05;3.67;;;6.90;99.90;;;;;;5044085;28;20252;-79
2022/02/02 13:34:33;;;;;;;8.05;4.13;;;6.90;99.90;;;;;;5044098;28;20205;-80
2022/02/02 13:37:31;;;;;;;5.05;3.60;;;6.90;99.90;;;;;;5044033;28;20208;-81
2022/02/02 14:05:23;;;;;;;4.40;3.15;;;5.90;99.90;;;;;;5041979;28;20264;-82
2022/02/02 14:08:00;;;;;;;2.58;2.00;;;6.00;99.90;;;;;;5042283;28;20237;-81
2022/02/02 14:10:43;;;;;;;11.57;3.47;;;6.20;99.90;;;;;;5041317;28;20316;-82
2022/02/02 14:32:20;;;;;;;3.38;2.90;;;6.80;99.90;;;;;;5043360;28;20205;-81
2022/02/02 14:34:47;;;;;;;5.25;3.30;;;7.20;99.90;;;;;;5042541;28;20206;-82
2022/02/02 14:37:18;;;;;;;8.60;4.95;;;7.30;99.90;;;;;;5043176;28;20202;-83
2022/02/02 14:39:54;;;;;;;8.23;4.07;;;7.10;99.90;;;;;;5042697;28;20294;-83
2022/02/02 14:42:27;;;;;;;7.60;3.85;;;6.90;99.90;;;;;;5042394;28;20263;-83
2022/02/02 14:45:00;;;;;;;7.63;4.95;;;6.70;99.90;;;;;;5040128;28;20206;-83
2022/02/02 14:47:34;;;;;;;5.70;3.67;;;6.60;99.90;;;;;;5040068;28;20212;-82
2022/02/02 14:50:08;;;;;;;8.00;4.65;;;6.60;99.90;;;;;;5042202;28;20222;-82
2022/02/02 14:52:47;;;;;;;7.70;5.07;;;6.70;99.90;;;;;;5042744;28;20191;-82
2022/02/02 15:26:35;;;;;;;5.70;2.92;;;6.70;99.90;;;;;;5038703;28;20224;-83
2022/02/02 15:28:47;;;;;;;5.35;2.95;;;6.70;99.90;;;;;;5038123;28;20612;-82
2022/02/02 15:31:15;;;;;;;4.13;3.72;;;6.60;99.90;;;;;;5038442;28;20252;-82
2022/02/02 15:33:44;;;;;;;4.50;3.53;;;6.70;99.90;;;;;;5037901;28;20213;-81
2022/02/02 15:39:07;;;;;;;5.82;2.90;;;6.70;99.90;;;;;;5000572;28;20792;-82
2022/02/02 15:41:42;;;;;;;4.63;3.78;;;6.60;99.90;;;;;;5039903;28;20260;-82
2022/02/02 15:55:28;;;;;;;4.20;3.05;;;6.60;99.90;;;;;;5039371;28;20229;-80
2022/02/02 15:58:10;;;;;;;4.43;2.75;;;6.60;99.90;;;;;;5024234;28;20207;-84
2022/02/02 16:01:23;;;;;;;7.72;3.38;;;6.60;99.90;;;;;;5036486;28;20249;-84
2022/02/02 16:03:41;;;;;;;4.97;3.40;;;6.50;99.90;;;;;;5038843;28;20238;-82
2022/02/02 16:06:13;;;;;;;3.50;2.25;;;6.50;99.90;;;;;;5039188;28;20202;-84
2022/02/02 16:08:42;;;;;;;8.18;3.75;;;6.50;99.90;;;;;;5039627;28;20285;-82
2022/02/02 16:11:17;;;;;;;2.75;2.55;;;6.50;99.90;;;;;;5040483;28;20655;-82
2022/02/02 16:13:47;;;;;;;6.28;3.80;;;6.50;99.90;;;;;;5042085;28;20244;-81
2022/02/02 16:16:36;;;;;;;6.45;2.70;;;6.50;99.90;;;;;;5041418;28;20203;-82
2022/02/02 16:19:13;;;;;;;2.65;2.35;;;6.50;99.90;;;;;;5040597;28;20268;-82
2022/02/02 16:24:59;;;;;;;3.05;2.78;;;6.50;99.90;;;;;;5039811;28;20252;-81
2022/02/02 16:35:55;;;;;;;3.25;2.67;;;6.60;99.90;;;;;;4978644;28;20208;-83
2022/02/02 16:38:24;;;;;;;2.90;2.58;;;6.60;99.90;;;;;;5016451;28;20230;-80
2022/02/02 16:40:52;;;;;;;3.60;3.30;;;6.60;99.90;;;;;;5033015;28;20257;-82
2022/02/02 16:43:20;;;;;;;4.45;3.75;;;6.60;99.90;;;;;;5033277;28;20206;-80
2022/02/02 16:45:50;;;;;;;5.65;4.50;;;6.70;99.90;;;;;;5033662;28;20237;-79
2022/02/02 16:48:17;;;;;;;6.10;3.38;;;6.70;99.90;;;;;;5033422;28;20237;-79
2022/02/02 16:50:49;;;;;;;3.20;2.95;;;6.70;99.90;;;;;;5032661;28;20230;-82
2022/02/02 16:53:26;;;;;;;3.33;2.90;;;6.60;99.90;;;;;;5033722;28;20214;-81
2022/02/02 16:55:59;;;;;;;4.35;2.42;;;6.70;99.90;;;;;;5033211;28;20238;-80
2022/02/02 17:31:17;;;;;;;7.60;3.92;;;6.60;99.90;;;;;;5039182;28;20219;-83
2022/02/02 17:33:50;;;;;;;7.25;4.07;;;6.60;99.90;;;;;;5041766;28;20193;-85
2022/02/02 17:36:28;;;;;;;3.97;3.67;;;6.60;99.90;;;;;;5044828;28;20791;-85
2022/02/02 17:39:00;;;;;;;3.90;3.50;;;6.60;99.90;;;;;;5040199;28;20237;-85
2022/02/02 17:41:55;;;;;;;4.30;4.00;;;6.50;99.90;;;;;;5040013;28;20226;-85
2022/02/02 17:59:32;;;;;;;6.15;3.72;;;6.60;99.90;;;;;;5002852;28;20201;-86
2022/02/02 18:20:42;;;;;;;4.20;3.75;;;7.00;99.90;;;;;;5022731;28;20297;-86
2022/02/02 18:23:17;;;;;;;6.03;4.35;;;7.10;99.90;;;;;;5023537;28;20602;-87
2022/02/02 18:25:50;;;;;;;3.25;2.92;;;7.10;99.90;;;;;;5018819;28;20233;-87
2022/02/02 18:28:25;;;;;;;6.65;3.75;;;7.10;99.90;;;;;;5027370;28;20725;-86
2022/02/02 18:31:06;;;;;;;8.93;5.68;;;7.20;99.90;;;;;;5036978;28;20233;-85
2022/02/02 18:33:45;;;;;;;6.72;3.40;;;7.10;99.90;;;;;;5040993;28;20194;-84
2022/02/02 18:36:25;;;;;;;4.32;3.92;;;7.00;99.90;;;;;;5042537;28;20217;-83
2022/02/02 18:44:58;;;;;;;4.30;3.90;;;6.80;99.90;;;;;;5012278;28;20210;-84
2022/02/02 18:47:38;;;;;;;5.72;4.40;;;6.80;99.90;;;;;;5045610;28;20683;-82
2022/02/02 18:50:17;;;;;;;5.75;5.25;;;6.60;99.90;;;;;;5026449;28;20292;-84
2022/02/02 18:55:44;;;;;;;5.60;4.18;;;6.40;99.90;;;;;;5037774;28;20236;-85
2022/02/02 18:58:19;;;;;;;4.25;3.85;;;6.30;99.90;;;;;;5045527;28;20266;-85
2022/02/02 19:01:02;;;;;;;4.13;3.75;;;6.30;99.90;;;;;;5044932;28;20230;-84
2022/02/02 19:04:07;;;;;;;5.13;4.65;;;6.30;99.90;;;;;;5045129;28;20217;-82
2022/02/02 19:15:26;;;;;;;9.52;5.70;;;6.10;99.90;;;;;;5000755;28;20210;-84
2022/02/02 19:37:58;;;;;;;6.90;5.70;;;5.70;99.90;;;;;;5006232;28;20286;-83
2022/02/02 19:40:33;;;;;;;14.32;12.88;;;5.60;99.90;;;;;;5044073;28;20226;-84
2022/02/02 19:57:24;;;;;;;13.30;11.27;;;5.50;99.90;;;;;;5045315;28;20656;-84
2022/02/02 20:03:06;;;;;;;7.38;6.60;;;5.50;99.90;;;;;;5041703;28;20228;-84
2022/02/02 20:05:39;;;;;;;11.70;10.48;;;5.50;99.90;;;;;;5024690;28;20323;-83
2022/02/02 20:08:20;;;;;;;12.25;8.38;;;5.50;99.90;;;;;;5025075;28;20238;-84
2022/02/02 20:11:01;;;;;;;8.55;6.45;;;5.60;99.90;;;;;;5044014;28;20230;-84
2022/02/02 20:13:28;;;;;;;9.98;6.32;;;5.60;99.90;;;;;;5043829;28;20644;-85
2022/02/02 20:15:54;;;;;;;6.45;5.85;;;5.60;99.90;;;;;;5043724;28;20214;-84
2022/02/02 20:18:27;;;;;;;9.43;7.47;;;5.80;99.90;;;;;;5044064;28;20297;-82
2022/02/02 20:20:55;;;;;;;7.82;6.40;;;6.00;99.90;;;;;;5044348;28;20234;-84
2022/02/02 20:23:24;;;;;;;7.53;6.28;;;6.10;99.90;;;;;;5043882;28;20620;-82
2022/02/02 20:25:55;;;;;;;7.45;6.32;;;6.20;99.90;;;;;;5043529;28;20579;-85
2022/02/02 20:28:26;;;;;;;7.05;6.45;;;6.20;99.90;;;;;;5044194;28;20194;-82
2022/02/02 20:30:52;;;;;;;9.07;8.18;;;6.30;99.90;;;;;;5043400;28;20226;-85
2022/02/02 20:33:19;;;;;;;8.52;7.60;;;6.30;99.90;;;;;;5044420;28;20217;-85
2022/02/02 20:35:46;;;;;;;11.55;8.85;;;6.40;99.90;;;;;;5043938;28;20202;-84
2022/02/02 20:38:13;;;;;;;13.18;8.60;;;6.50;99.90;;;;;;5043774;28;20210;-84
2022/02/02 20:40:40;;;;;;;8.32;7.43;;;6.50;99.90;;;;;;5043928;28;20226;-84
2022/02/02 20:43:11;;;;;;;11.93;10.20;;;6.50;99.90;;;;;;5040228;28;20289;-86
2022/02/02 21:08:03;;;;;;;9.40;7.95;;;7.00;99.90;;;;;;5027970;28;20717;-83
2022/02/02 21:10:33;;;;;;;14.02;10.25;;;7.00;99.90;;;;;;5047240;28;20195;-86
2022/02/02 21:15:48;;;;;;;11.80;10.07;;;7.20;99.90;;;;;;5047208;28;20277;-85